• Join FlightAware (Why Join?)
  • Login
  • US Flag 
04:19AM EST


 

Airport Tracker/Info


-or-


 

Live Flight TrackerFlight Track Log ✈ N762NC ✈ 17-Oct-2013 ✈ KATL - KGSP

Flight Track Log - Related Links

Times and Time Zones

All times are in EDT time to prevent confusion due to time zone crossing. See the N762NC flight status page for this flight to view local times or setup timezone preferences in your user account.

Time Position Orientation Groundspeed Altitude Reporting Facility
EDT Latitude Longitude Course Direction KTS MPH feet Rate Location/Type
02:31PM 33.6500 -84.4500 68° East 157 181 2,100  Level Atlanta TRACON
02:32PM 33.6667 -84.5000 292° West 245 282 3,400 2,160 Climbing Atlanta TRACON
02:33PM 33.7167 -84.5833 306° West 274 315 6,500 2,280 Climbing Atlanta TRACON
02:35PM 33.8710 -84.0269 57° Northeast  Level Estimated
02:35PM 33.8225 -84.5389 19° North 275 316 10,000  Level Atlanta Center
02:36PM 33.9293 -83.9263 57° Northeast  Level Estimated
02:36PM 33.8250 -84.4214 89° East 289 333 10,900  Level Atlanta Center
02:37PM 33.9668 -83.8122 68° East  Level FlightAware Approximate
02:37PM 33.8294 -84.2914 88° East 380 437 12,800  Level Atlanta Center
02:38PM 33.8381 -84.1564 86° East 397 457 14,600 1,620 Climbing Atlanta Center
02:39PM 33.8464 -84.0164 86° East 415 478 16,100 1,680 Climbing Atlanta Center
02:40PM 33.8608 -83.8736 83° East 425 489 18,000 1,380 Climbing Atlanta Center
02:41PM 33.9128 -83.7208 68° East 430 495 18,900 480 Climbing Atlanta Center
02:42PM 33.9686 -83.5706 66° East 469 540 19,000  Climbing Atlanta Center
02:43PM 34.0411 -83.4447 55° Northeast 474 545 19,000 -300 Level Atlanta Center
02:44PM 34.1156 -83.3236 53° Northeast 455 524 18,500 -900 Descending Atlanta Center
02:45PM 34.1878 -83.1975 55° Northeast 455 524 17,300 -1,380 Descending Atlanta Center
02:46PM 34.2622 -83.0711 54° Northeast 455 524 15,800 -1,620 Descending Atlanta Center
02:47PM 34.3300 -82.9497 56° Northeast 443 510 14,100 -1,800 Descending Atlanta Center
02:48PM 34.3936 -82.8356 56° Northeast 430 495 12,300 -1,500 Descending Atlanta Center
02:49PM 34.4592 -82.7236 55° Northeast 410 472 11,100 -900 Descending Atlanta Center
02:50PM 34.5397 -82.6292 44° Northeast 400 460 10,600 -600 Descending Atlanta Center
02:51PM 34.6053 -82.5347 50° Northeast 385 443 10,000 -600 Descending Atlanta Center
02:52PM 34.6753 -82.4653 39° Northeast 351 404 9,400 -1,080 Descending Atlanta Center
02:53PM 34.7561 -82.4258 22° Northeast 317 365 7,900 -1,500 Descending Atlanta Center
02:54PM 34.8286 -82.3789 28° Northeast 304 350 6,500 -960 Descending Atlanta Center
02:55PM 34.8989 -82.3267 31° Northeast 299 344 6,000 -720 Descending Atlanta Center
02:56PM 34.9628 -82.2647 38° Northeast 299 344 5,100 -900 Descending Atlanta Center
02:57PM 35.0306 -82.2047 36° Northeast 301 346 4,300 -840 Descending Atlanta Center
02:59PM 34.9156 -82.2141 184° South  Level FlightAware Approximate
03:06PM 34.8957 -82.2189 186° South  Level Estimated